Time;durP1;ratioP1;P1;durP2;ratioP2;P2;SDS_P1;SDS_P2;PMS_P1;PMS_P2;Temp;Humidity;BMP_temperature;BMP_pressure;BME280_temperature;BME280_humidity;BME280_pressure;Samples;Min_cycle;Max_cycle;Signal;HPM_P1;HPM_P2
2021/03/31 00:00:37;;;;;;;11.95;7.28;;;6.00;99.90;;;;;;5009474;28;20069;-73
2021/03/31 00:03:12;;;;;;;13.15;7.47;;;5.90;99.90;;;;;;5009439;28;20022;-73
2021/03/31 00:05:38;;;;;;;14.55;7.68;;;5.90;99.90;;;;;;5009455;28;20080;-73
2021/03/31 00:08:05;;;;;;;14.13;8.63;;;5.90;99.90;;;;;;5009341;28;20025;-72
2021/03/31 00:10:45;;;;;;;14.15;7.90;;;5.80;99.90;;;;;;5009321;28;20026;-73
2021/03/31 00:13:11;;;;;;;13.63;7.13;;;5.80;99.90;;;;;;5009306;28;20022;-73
2021/03/31 00:15:37;;;;;;;13.60;7.63;;;5.80;99.90;;;;;;5009430;28;20488;-73
2021/03/31 00:18:06;;;;;;;14.60;7.40;;;5.80;99.90;;;;;;5008993;28;20121;-73
2021/03/31 00:20:32;;;;;;;16.27;9.27;;;5.70;99.90;;;;;;5009147;28;20022;-73
2021/03/31 00:22:57;;;;;;;15.63;7.97;;;5.80;99.90;;;;;;5010277;28;20443;-73
2021/03/31 00:25:23;;;;;;;14.68;8.60;;;5.70;99.90;;;;;;5009084;28;20029;-73
2021/03/31 00:27:49;;;;;;;18.65;10.32;;;5.70;99.90;;;;;;5009426;28;20521;-73
2021/03/31 00:30:16;;;;;;;24.63;12.05;;;5.70;99.90;;;;;;5008941;28;20026;-73
2021/03/31 00:32:42;;;;;;;18.70;9.70;;;5.70;99.90;;;;;;5010094;28;20518;-73
2021/03/31 00:35:09;;;;;;;15.77;9.38;;;5.70;99.90;;;;;;5008867;28;20037;-73
2021/03/31 00:37:36;;;;;;;14.90;9.40;;;5.70;99.90;;;;;;5008884;28;20030;-74
2021/03/31 00:40:11;;;;;;;14.00;8.45;;;5.60;99.90;;;;;;5008937;28;20026;-73
2021/03/31 00:42:36;;;;;;;16.40;9.13;;;5.60;99.90;;;;;;5008339;28;20562;-73
2021/03/31 00:45:07;;;;;;;13.88;8.77;;;5.50;99.90;;;;;;5010154;28;20061;-73
2021/03/31 00:47:34;;;;;;;15.73;8.63;;;5.50;99.90;;;;;;5008752;28;20029;-74
2021/03/31 00:50:00;;;;;;;14.82;7.50;;;5.50;99.90;;;;;;5008803;28;20029;-73
2021/03/31 00:52:25;;;;;;;12.05;7.38;;;5.40;99.90;;;;;;5008791;28;20411;-73
2021/03/31 00:54:51;;;;;;;11.68;7.20;;;5.40;99.90;;;;;;5008693;28;20399;-74
2021/03/31 00:57:17;;;;;;;12.48;8.00;;;5.30;99.90;;;;;;5008657;28;20407;-73
2021/03/31 00:59:44;;;;;;;10.95;7.07;;;5.30;99.90;;;;;;5008468;28;20030;-73
2021/03/31 01:02:10;;;;;;;12.77;7.55;;;5.20;99.90;;;;;;5008580;28;20115;-73
2021/03/31 01:04:35;;;;;;;14.30;6.97;;;5.20;99.90;;;;;;5008444;28;20065;-73
2021/03/31 01:07:01;;;;;;;11.90;7.78;;;5.10;99.90;;;;;;5008634;28;20439;-73
2021/03/31 01:09:27;;;;;;;11.20;7.13;;;5.10;99.90;;;;;;5008476;28;20026;-73
2021/03/31 01:12:08;;;;;;;13.38;8.40;;;5.00;99.90;;;;;;5008586;28;20507;-73
2021/03/31 01:14:52;;;;;;;16.08;7.93;;;5.00;99.90;;;;;;5008471;28;20030;-73
2021/03/31 01:17:35;;;;;;;13.30;7.70;;;5.00;99.90;;;;;;5008553;28;20061;-73
2021/03/31 01:20:37;;;;;;;12.63;7.50;;;4.90;99.90;;;;;;5008406;28;20055;-73
2021/03/31 01:23:33;;;;;;;14.27;8.20;;;4.80;99.90;;;;;;5009622;28;20026;-73
2021/03/31 01:26:05;;;;;;;13.13;7.50;;;4.80;99.90;;;;;;5009563;28;20037;-74
2021/03/31 01:28:52;;;;;;;15.23;8.13;;;4.70;99.90;;;;;;5008159;28;20022;-73
2021/03/31 01:31:18;;;;;;;14.68;8.13;;;4.70;99.90;;;;;;5008312;28;20515;-73
2021/03/31 01:34:12;;;;;;;14.93;7.90;;;4.60;99.90;;;;;;5008231;28;20034;-73
2021/03/31 01:36:39;;;;;;;12.52;7.70;;;4.60;99.90;;;;;;5008163;28;20034;-73
2021/03/31 01:39:07;;;;;;;11.93;7.53;;;4.60;99.90;;;;;;5008065;28;20061;-73
2021/03/31 01:41:35;;;;;;;11.88;7.28;;;4.60;99.90;;;;;;5008006;28;20028;-73
2021/03/31 01:44:02;;;;;;;14.18;7.78;;;4.50;99.90;;;;;;5008023;28;20048;-73
2021/03/31 01:46:32;;;;;;;16.55;7.47;;;4.50;99.90;;;;;;5008003;28;20502;-73
2021/03/31 01:49:01;;;;;;;12.48;7.55;;;4.40;99.90;;;;;;5008127;28;20065;-73
2021/03/31 01:51:29;;;;;;;13.45;7.43;;;4.40;99.90;;;;;;5008114;28;20037;-73
2021/03/31 01:53:56;;;;;;;18.52;7.95;;;4.40;99.90;;;;;;5008885;28;20052;-73
2021/03/31 01:56:26;;;;;;;12.38;7.50;;;4.40;99.90;;;;;;5011802;28;20026;-73
2021/03/31 01:58:57;;;;;;;15.43;7.97;;;4.30;99.90;;;;;;5011681;28;20026;-73
2021/03/31 02:01:23;;;;;;;13.98;7.82;;;4.40;99.90;;;;;;5011614;28;20030;-73
2021/03/31 02:03:54;;;;;;;16.00;7.47;;;4.40;99.90;;;;;;5011604;28;20499;-73
2021/03/31 02:06:20;;;;;;;14.20;8.18;;;4.30;99.90;;;;;;5011584;28;20022;-73
2021/03/31 02:08:47;;;;;;;17.23;8.43;;;4.30;99.90;;;;;;5011458;28;20029;-73
2021/03/31 02:11:15;;;;;;;14.35;7.55;;;4.30;99.90;;;;;;5011549;28;20022;-73
2021/03/31 02:13:40;;;;;;;14.25;7.70;;;4.20;99.90;;;;;;5011410;28;20104;-73
2021/03/31 02:16:08;;;;;;;14.40;7.70;;;4.20;99.90;;;;;;5011518;28;20057;-73
2021/03/31 02:18:35;;;;;;;12.98;7.72;;;4.20;99.90;;;;;;5012464;28;20037;-73
2021/03/31 02:21:02;;;;;;;14.20;8.45;;;4.20;99.90;;;;;;5011393;28;20092;-73
2021/03/31 02:23:28;;;;;;;17.42;9.43;;;4.30;99.90;;;;;;5011324;28;20033;-73
2021/03/31 02:25:55;;;;;;;14.00;8.43;;;4.30;99.90;;;;;;5011407;28;20026;-73
2021/03/31 02:28:20;;;;;;;16.73;8.50;;;4.30;99.90;;;;;;5011197;28;20033;-73
2021/03/31 02:30:46;;;;;;;13.70;8.60;;;4.30;99.90;;;;;;5011193;28;20029;-73
2021/03/31 02:33:12;;;;;;;14.32;8.35;;;4.30;99.90;;;;;;5011216;28;20475;-74
2021/03/31 02:35:40;;;;;;;14.10;8.32;;;4.30;99.90;;;;;;5011197;28;20018;-73
2021/03/31 02:38:08;;;;;;;16.00;8.20;;;4.20;99.90;;;;;;5010990;28;20021;-73
2021/03/31 02:40:36;;;;;;;15.02;8.55;;;4.20;99.90;;;;;;5012445;28;20018;-73
2021/03/31 02:43:05;;;;;;;13.57;8.73;;;4.10;99.90;;;;;;5010811;28;20034;-73
2021/03/31 02:45:32;;;;;;;13.75;8.77;;;4.10;99.90;;;;;;5010837;28;20030;-73
2021/03/31 02:48:04;;;;;;;13.57;8.55;;;4.10;99.90;;;;;;5011023;28;20030;-73
2021/03/31 02:50:31;;;;;;;15.97;9.50;;;4.10;99.90;;;;;;5010824;28;20395;-73
2021/03/31 02:52:58;;;;;;;13.63;8.38;;;4.10;99.90;;;;;;5010800;28;20030;-73
2021/03/31 02:55:26;;;;;;;16.30;8.65;;;4.20;99.90;;;;;;5011937;28;20061;-73
2021/03/31 02:57:53;;;;;;;14.55;8.40;;;4.10;99.90;;;;;;5010571;28;20030;-74
2021/03/31 03:00:20;;;;;;;17.48;8.00;;;4.10;99.90;;;;;;5010556;28;20026;-74
2021/03/31 03:02:47;;;;;;;15.05;8.27;;;4.00;99.90;;;;;;5010466;28;20057;-73
2021/03/31 03:05:16;;;;;;;12.68;7.47;;;4.00;99.90;;;;;;5010690;28;20450;-73
2021/03/31 03:07:42;;;;;;;15.88;8.13;;;3.90;99.90;;;;;;5010514;28;20026;-74
2021/03/31 03:10:09;;;;;;;12.88;8.30;;;3.90;99.90;;;;;;5010543;28;20048;-74
2021/03/31 03:12:46;;;;;;;13.13;7.75;;;3.80;99.90;;;;;;5010375;28;20117;-74
2021/03/31 03:15:14;;;;;;;14.70;8.50;;;3.80;99.90;;;;;;5010377;28;20026;-73
2021/03/31 03:17:40;;;;;;;14.23;8.40;;;3.70;99.90;;;;;;5010295;28;20079;-74
2021/03/31 03:20:09;;;;;;;15.93;8.27;;;3.70;99.90;;;;;;5010363;28;20037;-73
2021/03/31 03:22:36;;;;;;;12.85;7.38;;;3.70;99.90;;;;;;5010145;28;20026;-73
2021/03/31 03:25:03;;;;;;;13.38;7.97;;;3.60;99.90;;;;;;5010250;28;20026;-73
2021/03/31 03:27:29;;;;;;;13.65;8.05;;;3.60;99.90;;;;;;5009943;28;20026;-74
2021/03/31 03:29:55;;;;;;;12.63;7.70;;;3.50;99.90;;;;;;5010040;28;20486;-73
2021/03/31 03:32:21;;;;;;;13.55;7.57;;;3.50;99.90;;;;;;5010039;28;20068;-73
2021/03/31 03:34:49;;;;;;;15.70;7.97;;;3.50;99.90;;;;;;5009952;28;20071;-73
2021/03/31 03:37:17;;;;;;;13.57;7.85;;;3.40;99.90;;;;;;5010115;28;20116;-73
2021/03/31 03:39:43;;;;;;;15.45;8.57;;;3.40;99.90;;;;;;5009910;28;20036;-73
2021/03/31 03:42:09;;;;;;;12.70;8.05;;;3.40;99.90;;;;;;5009907;28;20029;-73
2021/03/31 03:44:35;;;;;;;16.88;8.13;;;3.40;99.90;;;;;;5009828;28;20113;-73
2021/03/31 03:47:02;;;;;;;15.05;8.32;;;3.40;99.90;;;;;;5009774;28;20037;-73
2021/03/31 03:49:28;;;;;;;11.75;7.65;;;3.40;99.90;;;;;;5009683;28;20022;-73
2021/03/31 03:51:55;;;;;;;14.38;8.48;;;3.40;99.90;;;;;;5009715;28;20026;-73
2021/03/31 03:54:21;;;;;;;15.73;8.82;;;3.50;99.90;;;;;;5010187;28;20408;-73
2021/03/31 03:56:48;;;;;;;17.27;8.55;;;3.40;99.90;;;;;;5009705;28;20064;-74
2021/03/31 03:59:21;;;;;;;14.75;8.43;;;3.40;99.90;;;;;;5009529;28;20026;-73
2021/03/31 04:01:48;;;;;;;12.20;7.78;;;3.30;99.90;;;;;;5009407;28;20052;-73
2021/03/31 04:04:14;;;;;;;13.68;8.38;;;3.30;99.90;;;;;;5009427;28;20065;-73
2021/03/31 04:06:40;;;;;;;13.75;8.75;;;3.20;99.90;;;;;;5009378;28;20057;-73
2021/03/31 04:09:05;;;;;;;14.43;8.40;;;3.20;99.90;;;;;;5009315;28;20120;-73
2021/03/31 04:11:32;;;;;;;20.15;9.30;;;3.20;99.90;;;;;;5009361;28;20066;-73
2021/03/31 04:14:02;;;;;;;14.35;8.52;;;3.20;99.90;;;;;;5009251;28;20057;-74
2021/03/31 04:16:33;;;;;;;14.82;8.95;;;3.10;99.90;;;;;;5008609;28;20065;-74
2021/03/31 04:19:15;;;;;;;16.35;8.82;;;3.10;99.90;;;;;;5009121;28;20033;-73
2021/03/31 04:21:41;;;;;;;14.77;8.68;;;3.10;99.90;;;;;;5009190;28;20430;-73
2021/03/31 04:24:15;;;;;;;12.13;7.53;;;3.10;99.90;;;;;;5009207;28;20032;-73
2021/03/31 04:26:41;;;;;;;13.55;7.75;;;3.00;99.90;;;;;;5009170;28;20026;-74
2021/03/31 04:29:09;;;;;;;18.23;9.18;;;3.00;99.90;;;;;;5009475;28;20388;-73
2021/03/31 04:31:37;;;;;;;18.73;9.07;;;3.00;99.90;;;;;;5009006;28;20053;-73
2021/03/31 04:34:04;;;;;;;17.27;9.80;;;2.90;99.90;;;;;;5008910;28;20034;-73
2021/03/31 04:36:30;;;;;;;18.63;10.32;;;2.90;99.90;;;;;;5008766;28;20503;-73
2021/03/31 04:38:56;;;;;;;15.95;9.43;;;2.90;99.90;;;;;;5008820;28;20030;-72
2021/03/31 04:41:21;;;;;;;16.48;9.25;;;2.90;99.90;;;;;;5008657;28;20037;-73
2021/03/31 04:43:47;;;;;;;16.58;9.23;;;2.80;99.90;;;;;;5008733;28;20018;-73
2021/03/31 04:46:13;;;;;;;19.15;9.82;;;2.80;99.90;;;;;;5008729;28;20030;-73
2021/03/31 04:48:39;;;;;;;19.80;9.00;;;2.70;99.90;;;;;;5008630;28;20033;-73
2021/03/31 04:51:06;;;;;;;22.65;10.38;;;2.70;99.90;;;;;;5008616;28;20022;-73
2021/03/31 04:53:32;;;;;;;18.58;8.98;;;2.70;99.90;;;;;;5008566;28;20117;-73
2021/03/31 04:55:59;;;;;;;16.25;8.77;;;2.70;99.90;;;;;;5008562;28;20022;-74
2021/03/31 04:58:24;;;;;;;16.00;8.77;;;2.70;99.90;;;;;;5008535;28;20435;-73
2021/03/31 05:00:50;;;;;;;14.82;9.18;;;2.70;99.90;;;;;;5008557;28;20025;-73
2021/03/31 05:03:16;;;;;;;14.95;8.60;;;2.70;99.90;;;;;;5008423;28;20030;-73
2021/03/31 05:05:42;;;;;;;18.00;9.13;;;2.70;99.90;;;;;;5008517;28;20025;-73
2021/03/31 05:08:08;;;;;;;16.65;9.63;;;2.70;99.90;;;;;;5008600;28;20025;-73
2021/03/31 05:10:34;;;;;;;19.27;9.52;;;2.70;99.90;;;;;;5010741;28;20018;-73
2021/03/31 05:13:00;;;;;;;14.63;9.02;;;2.70;99.90;;;;;;5009431;28;20083;-73
2021/03/31 05:15:25;;;;;;;20.00;9.52;;;2.80;99.90;;;;;;5008388;28;20026;-73
2021/03/31 05:20:20;;;;;;;17.08;8.40;;;2.90;99.90;;;;;;5030158;23;20144;-73
2021/03/31 05:22:45;;;;;;;13.70;8.48;;;3.00;99.90;;;;;;5008533;28;20073;-73
2021/03/31 05:25:12;;;;;;;17.35;9.82;;;3.10;99.90;;;;;;5008613;28;20116;-73
2021/03/31 05:27:38;;;;;;;16.38;9.15;;;3.10;99.90;;;;;;5009119;28;20121;-74
2021/03/31 05:30:06;;;;;;;16.48;8.68;;;3.20;99.90;;;;;;5012665;28;20043;-73
2021/03/31 05:32:32;;;;;;;14.63;8.70;;;3.40;99.90;;;;;;5012524;28;20026;-73
2021/03/31 05:34:57;;;;;;;17.35;9.90;;;3.50;99.90;;;;;;5012535;28;20054;-72
2021/03/31 05:37:23;;;;;;;19.35;9.27;;;3.70;99.90;;;;;;5012262;28;20033;-72
2021/03/31 05:39:48;;;;;;;15.75;9.57;;;3.80;99.90;;;;;;5012566;28;20053;-73
2021/03/31 05:42:16;;;;;;;17.08;9.25;;;3.90;99.90;;;;;;5012134;28;20120;-73
2021/03/31 05:44:43;;;;;;;16.27;9.57;;;4.00;99.90;;;;;;5012269;28;20058;-72
2021/03/31 05:47:14;;;;;;;17.60;9.18;;;4.10;99.90;;;;;;5012123;28;20026;-73
2021/03/31 05:49:40;;;;;;;18.40;11.13;;;4.20;99.90;;;;;;5012002;28;20018;-73
2021/03/31 05:52:09;;;;;;;21.30;11.50;;;4.30;99.90;;;;;;5012011;28;20129;-73
2021/03/31 05:54:34;;;;;;;15.13;9.48;;;4.40;99.90;;;;;;5011975;28;20030;-72
2021/03/31 05:57:00;;;;;;;15.73;9.13;;;4.50;99.90;;;;;;5011952;28;20120;-73
2021/03/31 05:59:26;;;;;;;15.52;8.85;;;4.60;99.90;;;;;;5011800;28;20395;-73
2021/03/31 06:01:52;;;;;;;15.82;8.90;;;4.80;99.90;;;;;;5011953;28;20061;-72
2021/03/31 06:04:21;;;;;;;15.48;9.18;;;5.00;99.90;;;;;;5012338;28;20045;-71
2021/03/31 06:06:46;;;;;;;12.90;7.90;;;5.10;99.90;;;;;;5011970;28;20033;-73
2021/03/31 06:09:12;;;;;;;12.57;8.30;;;5.30;99.90;;;;;;5011673;28;20018;-72
2021/03/31 06:11:49;;;;;;;13.95;7.97;;;5.40;99.90;;;;;;5011766;28;20492;-72
2021/03/31 06:14:32;;;;;;;12.85;8.07;;;5.60;99.90;;;;;;5011970;28;20030;-72
2021/03/31 06:17:13;;;;;;;13.80;8.65;;;5.70;99.90;;;;;;5014593;28;20113;-72
2021/03/31 06:19:40;;;;;;;14.80;7.97;;;5.90;99.90;;;;;;5011426;28;20050;-72
2021/03/31 06:25:09;;;;;;;14.80;8.68;;;6.20;99.90;;;;;;5012774;28;20383;-72
2021/03/31 06:27:35;;;;;;;14.27;8.18;;;6.40;99.90;;;;;;5011576;28;20400;-73
2021/03/31 06:30:06;;;;;;;14.30;7.95;;;6.60;99.90;;;;;;5011284;28;20021;-72
2021/03/31 06:32:40;;;;;;;13.18;8.60;;;6.80;99.90;;;;;;5011215;28;20030;-72
2021/03/31 06:35:16;;;;;;;20.15;8.73;;;6.90;99.90;;;;;;5011300;28;20026;-72
2021/03/31 06:37:43;;;;;;;18.60;9.65;;;7.10;99.90;;;;;;5011236;28;20030;-72
2021/03/31 06:40:41;;;;;;;18.80;9.02;;;7.30;99.90;;;;;;5010344;28;20026;-72
2021/03/31 06:43:19;;;;;;;19.15;8.98;;;7.60;99.90;;;;;;5011406;28;20276;-72
2021/03/31 06:46:09;;;;;;;13.38;8.32;;;7.80;99.90;;;;;;5011105;28;20026;-72
2021/03/31 06:48:32;;;;;;;15.98;8.20;;;8.00;99.90;;;;;;5011824;28;20037;-72
2021/03/31 06:50:57;;;;;;;16.50;9.35;;;8.20;99.90;;;;;;5010860;28;20113;-72
2021/03/31 06:53:29;;;;;;;17.85;8.15;;;8.50;99.90;;;;;;5010909;28;20116;-73
2021/03/31 06:56:02;;;;;;;16.02;7.88;;;8.60;99.90;;;;;;5010802;28;20570;-72
2021/03/31 06:58:28;;;;;;;14.02;8.05;;;8.80;99.90;;;;;;5011109;28;20038;-72
2021/03/31 07:00:54;;;;;;;10.60;7.40;;;9.00;99.90;;;;;;5010774;28;20030;-72
2021/03/31 07:03:20;;;;;;;15.55;8.10;;;9.20;99.90;;;;;;5010926;28;20077;-72
2021/03/31 07:05:46;;;;;;;13.82;8.13;;;9.40;99.90;;;;;;5010665;28;20021;-72
2021/03/31 07:08:17;;;;;;;17.58;8.95;;;9.60;99.90;;;;;;5010619;28;20022;-72
2021/03/31 07:10:47;;;;;;;14.40;8.27;;;9.70;99.90;;;;;;5010893;28;20056;-72
2021/03/31 07:13:27;;;;;;;12.88;7.05;;;9.70;99.90;;;;;;5010876;28;20377;-73
2021/03/31 07:15:53;;;;;;;13.52;7.60;;;9.90;99.90;;;;;;5010635;28;20117;-74
2021/03/31 07:18:22;;;;;;;11.73;7.05;;;10.10;99.90;;;;;;5010341;28;20050;-73
2021/03/31 07:20:48;;;;;;;15.82;7.05;;;10.30;99.90;;;;;;5010805;28;20514;-72
2021/03/31 07:23:14;;;;;;;12.48;7.88;;;10.50;99.90;;;;;;5010435;28;20064;-73
2021/03/31 07:25:40;;;;;;;12.02;7.38;;;10.70;99.90;;;;;;5010532;28;20029;-73
2021/03/31 07:28:06;;;;;;;14.88;8.07;;;10.90;99.90;;;;;;5010708;28;20484;-73
2021/03/31 07:30:33;;;;;;;11.93;7.65;;;11.20;99.90;;;;;;5010375;28;20022;-71
2021/03/31 07:33:04;;;;;;;14.45;7.88;;;11.30;99.90;;;;;;5010968;28;20033;-73
2021/03/31 07:35:33;;;;;;;14.02;6.93;;;11.40;99.90;;;;;;5010174;28;20033;-75
2021/03/31 07:38:02;;;;;;;15.52;8.32;;;11.60;99.90;;;;;;5010123;28;20032;-74
2021/03/31 07:40:30;;;;;;;13.02;7.57;;;11.90;99.90;;;;;;5010072;28;20142;-73
2021/03/31 07:43:11;;;;;;;13.20;7.35;;;12.10;99.90;;;;;;5009970;28;20116;-74
2021/03/31 07:45:45;;;;;;;12.65;6.97;;;12.30;99.90;;;;;;5010004;28;20049;-72
2021/03/31 07:48:12;;;;;;;13.43;6.80;;;12.70;99.90;;;;;;5009918;28;20123;-72
2021/03/31 07:50:37;;;;;;;11.70;7.20;;;13.10;99.90;;;;;;5010979;28;20105;-72
2021/03/31 07:53:04;;;;;;;8.27;5.75;;;13.30;99.90;;;;;;5008909;28;20517;-72
2021/03/31 07:55:31;;;;;;;11.60;6.88;;;13.50;99.90;;;;;;5009735;28;20113;-72
2021/03/31 07:58:15;;;;;;;12.15;6.35;;;14.00;99.50;;;;;;5009598;28;20030;-72
2021/03/31 08:00:58;;;;;;;11.10;6.68;;;14.80;94.70;;;;;;5009597;28;20018;-72
2021/03/31 08:03:26;;;;;;;11.55;6.68;;;15.90;89.00;;;;;;5009524;28;20372;-72
2021/03/31 08:06:09;;;;;;;10.80;6.30;;;16.70;82.70;;;;;;5009496;28;20029;-72
2021/03/31 08:08:37;;;;;;;9.33;5.83;;;17.70;73.60;;;;;;5009505;28;20109;-72
2021/03/31 08:11:03;;;;;;;8.38;5.38;;;19.30;62.60;;;;;;5009431;28;20257;-73
2021/03/31 08:13:45;;;;;;;10.43;5.88;;;21.00;52.50;;;;;;5009230;28;20509;-72
2021/03/31 08:16:23;;;;;;;9.75;5.28;;;23.30;47.50;;;;;;5009343;28;20034;-72
2021/03/31 08:18:50;;;;;;;7.97;5.57;;;26.30;40.40;;;;;;5009015;28;20034;-73
2021/03/31 08:21:21;;;;;;;10.70;5.72;;;27.70;35.60;;;;;;5009198;28;20483;-72
2021/03/31 08:23:48;;;;;;;9.82;5.95;;;27.70;34.90;;;;;;5009459;28;19909;-73
2021/03/31 08:26:34;;;;;;;11.38;6.88;;;26.50;36.30;;;;;;5010215;28;20168;-74
2021/03/31 08:29:03;;;;;;;9.82;5.65;;;26.10;36.70;;;;;;5010052;28;20029;-73
2021/03/31 08:31:38;;;;;;;8.25;5.50;;;26.30;35.50;;;;;;5009685;28;20514;-73
2021/03/31 08:34:05;;;;;;;10.70;5.20;;;27.10;34.10;;;;;;5009659;28;20076;-73
2021/03/31 08:36:30;;;;;;;8.88;5.57;;;29.20;31.80;;;;;;5008907;28;20041;-73
2021/03/31 08:38:57;;;;;;;8.48;5.05;;;31.10;29.10;;;;;;5008911;28;20026;-73
2021/03/31 08:41:26;;;;;;;11.48;5.60;;;32.20;28.20;;;;;;5008949;28;20033;-74
2021/03/31 08:44:09;;;;;;;9.20;5.32;;;32.50;26.30;;;;;;5008921;28;20026;-73
2021/03/31 08:46:35;;;;;;;8.93;5.57;;;32.50;26.70;;;;;;5009058;28;20022;-72
2021/03/31 08:49:00;;;;;;;6.93;4.72;;;30.90;27.70;;;;;;5008987;28;20032;-72
2021/03/31 08:51:26;;;;;;;8.15;5.40;;;29.60;29.50;;;;;;5009095;28;20018;-72
2021/03/31 08:53:52;;;;;;;7.90;5.47;;;28.30;30.80;;;;;;5009284;28;20041;-73
2021/03/31 08:56:22;;;;;;;9.13;5.05;;;27.10;33.00;;;;;;5009904;28;20026;-74
2021/03/31 08:58:51;;;;;;;8.32;4.82;;;26.20;34.70;;;;;;5009912;28;20078;-73
2021/03/31 09:01:25;;;;;;;8.68;4.57;;;26.20;33.90;;;;;;5008698;28;20108;-73
2021/03/31 09:03:51;;;;;;;9.55;5.03;;;28.60;31.20;;;;;;5008345;28;20519;-73
2021/03/31 09:06:19;;;;;;;7.72;4.82;;;31.10;28.70;;;;;;5008567;28;20026;-73
2021/03/31 09:08:46;;;;;;;8.95;5.00;;;34.00;26.00;;;;;;5008553;28;20501;-72
2021/03/31 09:11:12;;;;;;;9.48;4.95;;;35.80;24.20;;;;;;5008447;28;20633;-73
2021/03/31 09:13:39;;;;;;;7.30;4.63;;;37.20;23.60;;;;;;4992463;28;20081;-73
2021/03/31 09:16:15;;;;;;;6.05;4.43;;;39.10;22.20;;;;;;5008660;28;20128;-72
2021/03/31 09:18:42;;;;;;;7.22;4.80;;;40.80;20.40;;;;;;5010286;28;20030;-70
2021/03/31 09:21:08;;;;;;;7.60;4.22;;;40.50;20.10;;;;;;5008613;28;20030;-72
2021/03/31 09:23:33;;;;;;;8.50;4.45;;;41.40;19.30;;;;;;5008264;28;20112;-71
2021/03/31 09:26:02;;;;;;;5.10;3.80;;;42.00;18.80;;;;;;5008106;28;20549;-72
2021/03/31 09:28:29;;;;;;;7.20;4.75;;;43.10;18.60;;;;;;5008262;28;20793;-71
2021/03/31 09:31:08;;;;;;;8.57;4.53;;;42.30;18.20;;;;;;5008165;28;20091;-71
2021/03/31 09:33:35;;;;;;;5.18;3.05;;;43.30;18.20;;;;;;5008274;28;20030;-71
2021/03/31 09:36:16;;;;;;;7.78;4.60;;;42.80;18.30;;;;;;5008125;28;20480;-73
2021/03/31 09:38:42;;;;;;;5.18;4.15;;;42.60;18.20;;;;;;5008069;28;20495;-72
2021/03/31 09:41:08;;;;;;;7.90;5.03;;;43.20;18.00;;;;;;5008109;28;20026;-72
2021/03/31 09:43:35;;;;;;;9.88;4.57;;;42.60;18.10;;;;;;5008061;28;20033;-72
2021/03/31 09:46:01;;;;;;;7.65;4.22;;;41.50;18.10;;;;;;5008013;28;20377;-72
2021/03/31 09:48:27;;;;;;;6.15;4.10;;;41.00;18.80;;;;;;5008064;28;20180;-72
2021/03/31 09:50:54;;;;;;;6.03;4.70;;;42.00;18.40;;;;;;5008141;28;20495;-73
2021/03/31 09:53:26;;;;;;;5.22;3.53;;;43.80;17.70;;;;;;5008865;28;20125;-73
2021/03/31 09:55:53;;;;;;;6.07;4.03;;;45.20;17.30;;;;;;5008429;28;20157;-72
2021/03/31 09:58:24;;;;;;;7.45;4.07;;;46.40;16.50;;;;;;5008225;28;20483;-72
2021/03/31 10:00:50;;;;;;;6.55;3.92;;;47.20;16.10;;;;;;5008249;28;20115;-72
2021/03/31 10:03:16;;;;;;;7.28;4.25;;;45.80;15.80;;;;;;5008339;28;20479;-72
2021/03/31 10:05:42;;;;;;;5.30;3.78;;;45.20;16.20;;;;;;5009699;28;20514;-72
2021/03/31 10:08:10;;;;;;;7.63;4.55;;;45.20;16.50;;;;;;5008468;28;20030;-74
2021/03/31 10:10:44;;;;;;;7.95;4.03;;;44.50;16.30;;;;;;5008371;28;20026;-72
2021/03/31 10:13:12;;;;;;;5.03;3.78;;;44.70;16.90;;;;;;5008161;28;20031;-73
2021/03/31 10:15:40;;;;;;;6.15;4.05;;;46.20;16.60;;;;;;5010014;28;20033;-72
2021/03/31 10:18:07;;;;;;;6.70;4.40;;;47.90;16.10;;;;;;5011307;28;20030;-73
2021/03/31 10:20:38;;;;;;;6.60;4.88;;;47.80;15.40;;;;;;5011417;28;20033;-73
2021/03/31 10:23:03;;;;;;;5.80;4.40;;;46.50;15.40;;;;;;5011517;28;20116;-74
2021/03/31 10:25:31;;;;;;;8.85;4.00;;;45.70;16.10;;;;;;5011298;28;20064;-73
2021/03/31 10:27:58;;;;;;;6.90;4.20;;;46.80;16.00;;;;;;5011346;28;20022;-73
2021/03/31 10:30:31;;;;;;;5.47;3.92;;;47.80;15.60;;;;;;5011328;28;20026;-73
2021/03/31 10:33:01;;;;;;;5.30;3.88;;;49.30;15.60;;;;;;5011520;28;20025;-73
2021/03/31 10:35:52;;;;;;;5.78;4.30;;;50.10;14.60;;;;;;5011168;28;20061;-73
2021/03/31 10:38:51;;;;;;;6.35;4.07;;;50.70;14.40;;;;;;5011091;28;20092;-73
2021/03/31 10:41:34;;;;;;;6.00;4.25;;;50.80;14.00;;;;;;5011308;28;20110;-73
2021/03/31 10:51:54;;;;;;;7.13;4.50;;;50.60;14.50;;;;;;5013059;28;20116;-73
2021/03/31 10:54:24;;;;;;;3.90;3.50;;;51.10;14.50;;;;;;5011052;28;20045;-73
2021/03/31 10:56:53;;;;;;;6.85;4.20;;;50.60;14.90;;;;;;5010986;28;20472;-73
2021/03/31 10:59:19;;;;;;;5.50;3.95;;;51.50;14.40;;;;;;5010765;28;20040;-72
2021/03/31 11:01:44;;;;;;;5.35;4.22;;;52.40;14.20;;;;;;5010819;28;20021;-72
2021/03/31 11:04:10;;;;;;;7.78;4.10;;;51.50;13.90;;;;;;5010897;28;20022;-73
2021/03/31 11:06:35;;;;;;;5.78;4.45;;;51.60;13.90;;;;;;5011470;28;20030;-72
2021/03/31 11:09:01;;;;;;;5.30;4.15;;;51.90;13.70;;;;;;5010799;28;20498;-72
2021/03/31 11:11:27;;;;;;;7.07;4.78;;;52.40;13.60;;;;;;5010832;28;20072;-72
2021/03/31 11:13:52;;;;;;;9.18;5.13;;;52.40;13.40;;;;;;5010561;28;20117;-72
2021/03/31 11:16:18;;;;;;;5.47;3.83;;;51.00;14.00;;;;;;5010613;28;20399;-72
2021/03/31 11:19:04;;;;;;;6.00;3.95;;;49.70;14.40;;;;;;5034033;23;20032;-74
2021/03/31 11:26:57;;;;;;;6.50;4.15;;;50.60;14.80;;;;;;5011650;28;20463;-73
2021/03/31 11:29:23;;;;;;;5.45;3.65;;;50.80;13.90;;;;;;5010032;28;20049;-72
2021/03/31 11:31:48;;;;;;;7.28;4.38;;;49.40;14.10;;;;;;5010110;28;20041;-73
2021/03/31 11:34:14;;;;;;;6.72;4.13;;;49.00;14.30;;;;;;5010036;28;20044;-73
2021/03/31 11:36:40;;;;;;;5.57;3.60;;;50.30;14.50;;;;;;5009980;28;20053;-74
2021/03/31 11:39:06;;;;;;;6.70;4.28;;;51.40;14.00;;;;;;5009881;28;20550;-75
2021/03/31 11:41:31;;;;;;;7.13;4.38;;;51.80;14.30;;;;;;5009765;28;20022;-75
2021/03/31 11:43:57;;;;;;;5.28;4.28;;;51.90;14.10;;;;;;5009852;28;20475;-74
2021/03/31 11:46:23;;;;;;;5.97;3.80;;;51.30;14.30;;;;;;5009709;28;20113;-74
2021/03/31 11:48:48;;;;;;;4.95;3.33;;;51.60;14.20;;;;;;5009611;28;20022;-74
2021/03/31 11:51:14;;;;;;;7.32;5.25;;;51.80;14.00;;;;;;5009911;28;20025;-75
2021/03/31 11:53:40;;;;;;;5.13;3.60;;;51.80;13.60;;;;;;5009678;28;20112;-75
2021/03/31 11:56:06;;;;;;;4.68;3.58;;;52.40;13.80;;;;;;5010175;28;20468;-76
2021/03/31 11:58:32;;;;;;;6.05;5.05;;;52.70;13.80;;;;;;5009478;28;20034;-76
2021/03/31 12:00:58;;;;;;;7.15;5.18;;;52.80;13.30;;;;;;5009583;28;20033;-75
2021/03/31 12:03:24;;;;;;;7.35;4.55;;;51.90;13.30;;;;;;5009464;28;20030;-74
2021/03/31 12:05:50;;;;;;;6.93;3.90;;;49.50;14.00;;;;;;5009418;28;20506;-75
2021/03/31 12:08:16;;;;;;;5.45;4.57;;;49.50;14.10;;;;;;5010712;28;20037;-75
2021/03/31 12:10:42;;;;;;;8.63;4.60;;;49.80;14.50;;;;;;5009259;28;20506;-75
2021/03/31 12:13:07;;;;;;;6.15;4.13;;;50.60;13.70;;;;;;5009359;28;20061;-75
2021/03/31 12:15:33;;;;;;;6.57;4.38;;;51.10;14.20;;;;;;5009402;28;20029;-75
2021/03/31 12:17:59;;;;;;;6.95;5.10;;;49.80;14.10;;;;;;5009242;28;20030;-75
2021/03/31 12:20:25;;;;;;;6.30;4.70;;;48.20;14.90;;;;;;5009248;28;20448;-75
2021/03/31 12:22:50;;;;;;;8.32;4.25;;;48.20;15.60;;;;;;5009311;28;20037;-75
2021/03/31 12:25:16;;;;;;;6.90;4.50;;;48.70;15.20;;;;;;5009024;28;20025;-75
2021/03/31 12:27:44;;;;;;;6.22;5.07;;;49.30;15.10;;;;;;5009150;28;20033;-75
2021/03/31 12:30:13;;;;;;;8.13;5.22;;;49.50;14.60;;;;;;5009091;28;20054;-74
2021/03/31 12:32:40;;;;;;;8.23;3.85;;;50.30;14.90;;;;;;5009001;28;20026;-75
2021/03/31 12:35:07;;;;;;;4.93;4.32;;;52.10;14.40;;;;;;5008894;28;20095;-75
2021/03/31 12:37:32;;;;;;;7.85;5.38;;;52.10;13.80;;;;;;5008294;28;20037;-75
2021/03/31 12:39:58;;;;;;;6.70;4.80;;;52.00;13.80;;;;;;5010078;28;20392;-76
2021/03/31 12:42:24;;;;;;;5.30;4.30;;;50.60;14.00;;;;;;5008788;28;20029;-75
2021/03/31 12:44:50;;;;;;;7.03;5.80;;;50.70;14.40;;;;;;5010009;28;20110;-75
2021/03/31 12:47:19;;;;;;;7.18;4.35;;;49.70;14.30;;;;;;5008778;28;20508;-75
2021/03/31 12:49:48;;;;;;;9.20;5.45;;;49.40;15.00;;;;;;5008602;28;20032;-75
2021/03/31 12:52:15;;;;;;;8.38;4.75;;;49.90;14.50;;;;;;5008730;28;20513;-74
2021/03/31 12:57:07;;;;;;;8.73;5.57;;;50.70;14.70;;;;;;5010126;28;20487;-75
2021/03/31 12:59:34;;;;;;;7.80;6.03;;;49.60;14.60;;;;;;5008510;28;20036;-76
2021/03/31 13:01:59;;;;;;;8.07;4.18;;;47.50;14.90;;;;;;5008421;28;20026;-75
2021/03/31 13:04:25;;;;;;;8.73;4.38;;;48.00;16.10;;;;;;5008525;28;20022;-75
2021/03/31 13:06:51;;;;;;;7.95;4.65;;;49.00;15.40;;;;;;5009712;28;20029;-75
2021/03/31 13:09:17;;;;;;;7.35;4.97;;;49.70;15.10;;;;;;5008486;28;20094;-74
2021/03/31 13:11:43;;;;;;;8.43;5.95;;;50.00;15.00;;;;;;5008443;28;20022;-75
2021/03/31 13:16:51;;;;;;;7.78;4.82;;;49.30;15.00;;;;;;5010259;28;20036;-75